Time;durP1;ratioP1;P1;durP2;ratioP2;P2;SDS_P1;SDS_P2;PMS_P1;PMS_P2;Temp;Humidity;BMP_temperature;BMP_pressure;BME280_temperature;BME280_humidity;BME280_pressure;Samples;Min_cycle;Max_cycle;Signal;HPM_P1;HPM_P2
2022/11/09 00:00:31;;;;;;;227.67;167.23;;;;;21.80;99572.00;;;;2074693;28;20496;-82
2022/11/09 00:01:31;;;;;;;208.97;160.30;;;;;21.80;99564.00;;;;2075406;28;20207;-82
2022/11/09 00:02:32;;;;;;;230.27;166.43;;;;;21.90;99571.00;;;;2066283;28;20250;-82
2022/11/09 00:03:32;;;;;;;215.33;165.10;;;;;21.80;99577.00;;;;2067273;28;20206;-82
2022/11/09 00:04:32;;;;;;;206.73;156.80;;;;;21.80;99589.00;;;;2077951;28;20225;-82
2022/11/09 00:05:33;;;;;;;213.63;165.07;;;;;21.80;99576.00;;;;2075222;28;20202;-82
2022/11/09 00:06:33;;;;;;;198.90;152.67;;;;;21.80;99556.00;;;;2066504;28;20749;-82
2022/11/09 00:07:34;;;;;;;216.33;154.30;;;;;21.80;99567.00;;;;2059260;28;20215;-82
2022/11/09 00:08:39;;;;;;;196.77;149.50;;;;;21.80;99573.00;;;;2067103;28;20249;-82
2022/11/09 00:09:39;;;;;;;192.18;145.32;;;;;21.80;99569.00;;;;2075982;28;20213;-82
2022/11/09 00:10:40;;;;;;;182.10;142.73;;;;;21.80;99579.00;;;;2075667;28;20218;-82
2022/11/09 00:11:40;;;;;;;183.60;141.33;;;;;21.80;99505.00;;;;2075281;28;20229;-82
2022/11/09 00:12:40;;;;;;;178.77;139.90;;;;;21.80;99573.00;;;;2075055;28;20219;-82
2022/11/09 00:13:41;;;;;;;181.57;136.77;;;;;21.80;99573.00;;;;2075042;28;20240;-82
2022/11/09 00:14:42;;;;;;;168.07;131.60;;;;;21.80;99570.00;;;;2075427;28;20237;-82
2022/11/09 00:15:42;;;;;;;174.10;133.43;;;;;21.80;99567.00;;;;2076104;28;20214;-81
2022/11/09 00:16:42;;;;;;;162.93;129.20;;;;;21.80;99570.00;;;;2075788;28;20213;-82
2022/11/09 00:17:43;;;;;;;167.10;130.20;;;;;21.80;99469.00;;;;2075962;28;20225;-82
2022/11/09 00:18:46;;;;;;;171.83;130.60;;;;;21.80;99566.00;;;;2075531;28;20217;-82
2022/11/09 00:19:46;;;;;;;153.45;124.20;;;;;21.70;99575.00;;;;2075230;28;20263;-82
2022/11/09 00:20:46;;;;;;;153.20;121.70;;;;;21.80;99561.00;;;;2075368;28;20699;-82
2022/11/09 00:21:47;;;;;;;149.93;118.03;;;;;21.70;99561.00;;;;2076645;28;20732;-82
2022/11/09 00:22:48;;;;;;;151.50;120.90;;;;;21.70;99554.00;;;;2066593;28;20277;-82
2022/11/09 00:23:48;;;;;;;144.40;115.60;;;;;21.70;99567.00;;;;2067148;28;20226;-82
2022/11/09 00:24:49;;;;;;;140.80;112.40;;;;;21.70;99564.00;;;;2075892;28;20464;-82
2022/11/09 00:25:49;;;;;;;142.17;112.77;;;;;21.80;99571.00;;;;2067160;28;20246;-82
2022/11/09 00:26:49;;;;;;;139.83;112.37;;;;;21.70;99561.00;;;;2065867;28;20217;-82
2022/11/09 00:27:50;;;;;;;135.40;107.77;;;;;21.70;99556.00;;;;2075174;28;20765;-81
2022/11/09 00:28:50;;;;;;;136.47;105.70;;;;;21.70;99563.00;;;;2075205;28;20220;-82
2022/11/09 00:29:50;;;;;;;129.10;103.60;;;;;21.70;99440.00;;;;2074163;28;20520;-82
2022/11/09 00:30:51;;;;;;;127.33;102.43;;;;;21.70;99553.00;;;;2075291;28;20214;-82
2022/11/09 00:31:51;;;;;;;131.10;103.20;;;;;21.70;99563.00;;;;2075537;28;20226;-82
2022/11/09 00:32:51;;;;;;;123.70;100.33;;;;;21.70;99554.00;;;;2076052;28;20217;-82
2022/11/09 00:33:54;;;;;;;120.70;93.83;;;;;21.70;99556.00;;;;2075884;28;20214;-82
2022/11/09 00:34:54;;;;;;;122.82;98.60;;;;;21.70;99546.00;;;;2067119;28;20213;-82
2022/11/09 00:35:54;;;;;;;115.67;92.83;;;;;21.70;99562.00;;;;2066650;28;20218;-82
2022/11/09 00:36:55;;;;;;;119.70;94.07;;;;;21.70;99560.00;;;;2074325;28;20205;-81
2022/11/09 00:37:55;;;;;;;112.40;90.60;;;;;21.70;99556.00;;;;2075120;28;20213;-81
2022/11/09 00:38:57;;;;;;;109.37;86.30;;;;;21.70;99556.00;;;;2074983;28;20444;-82
2022/11/09 00:39:57;;;;;;;112.10;87.03;;;;;21.70;99549.00;;;;2075735;28;20206;-81
2022/11/09 00:41:03;;;;;;;115.63;88.43;;;;;21.70;99552.00;;;;2075771;28;20555;-81
2022/11/09 00:42:03;;;;;;;110.30;88.63;;;;;21.70;99470.00;;;;2066986;28;20218;-82
2022/11/09 00:43:03;;;;;;;113.20;86.27;;;;;21.70;99555.00;;;;2058829;28;20263;-81
2022/11/09 00:44:04;;;;;;;108.60;85.63;;;;;21.70;99546.00;;;;2066402;28;20214;-82
2022/11/09 00:45:04;;;;;;;102.70;82.73;;;;;21.70;99547.00;;;;2074992;28;20271;-81
2022/11/09 00:46:05;;;;;;;105.07;82.53;;;;;21.70;99554.00;;;;2074805;28;20210;-82
2022/11/09 00:47:05;;;;;;;107.43;82.23;;;;;21.70;99545.00;;;;2075042;28;20202;-81
2022/11/09 00:48:05;;;;;;;103.73;81.77;;;;;21.70;99545.00;;;;2076052;28;20199;-82
2022/11/09 00:49:06;;;;;;;98.40;76.30;;;;;21.70;99544.00;;;;2075710;28;20226;-82
2022/11/09 00:50:06;;;;;;;99.80;78.03;;;;;21.60;99543.00;;;;2075912;28;20732;-81
2022/11/09 00:51:07;;;;;;;96.40;76.30;;;;;21.60;99544.00;;;;2075962;28;20708;-81
2022/11/09 00:52:08;;;;;;;88.77;73.20;;;;;21.60;99548.00;;;;2066030;28;20210;-82
2022/11/09 00:53:08;;;;;;;93.73;73.90;;;;;21.60;99552.00;;;;2066431;28;20452;-82
2022/11/09 00:54:08;;;;;;;91.27;71.20;;;;;21.70;99540.00;;;;2074991;28;20213;-82
2022/11/09 00:55:09;;;;;;;87.30;72.77;;;;;21.60;99544.00;;;;2077628;28;20237;-82
2022/11/09 00:56:10;;;;;;;87.60;70.00;;;;;21.60;99532.00;;;;2075852;28;20206;-81
2022/11/09 00:57:12;;;;;;;81.55;67.35;;;;;21.60;99540.00;;;;2066910;28;20214;-82
2022/11/09 00:58:12;;;;;;;85.47;67.25;;;;;21.60;99544.00;;;;2067269;28;20215;-81
2022/11/09 00:59:12;;;;;;;81.50;67.17;;;;;21.60;99539.00;;;;2067132;28;20217;-82
2022/11/09 01:00:18;;;;;;;81.50;62.17;;;;;21.60;99546.00;;;;2066499;28;20229;-81
2022/11/09 01:01:18;;;;;;;80.60;66.40;;;;;21.60;99549.00;;;;2075193;28;20218;-82
2022/11/09 01:02:18;;;;;;;79.20;64.00;;;;;21.60;99555.00;;;;2074749;28;20220;-82
2022/11/09 01:03:19;;;;;;;76.90;62.20;;;;;21.60;99552.00;;;;2075385;28;20687;-82
2022/11/09 01:04:19;;;;;;;72.40;58.67;;;;;21.60;99555.00;;;;2075881;28;20219;-82
2022/11/09 01:05:20;;;;;;;77.67;59.30;;;;;21.60;99553.00;;;;2075878;28;20236;-81
2022/11/09 01:06:22;;;;;;;73.17;58.03;;;;;21.60;99562.00;;;;2075857;28;20275;-80
2022/11/09 01:07:23;;;;;;;68.35;58.15;;;;;21.60;99551.00;;;;2075409;28;20592;-80
2022/11/09 01:08:23;;;;;;;67.60;57.30;;;;;21.60;99561.00;;;;2074800;28;20232;-80
2022/11/09 01:09:23;;;;;;;71.43;54.30;;;;;21.60;99561.00;;;;2075013;28;20229;-79
2022/11/09 01:10:24;;;;;;;73.10;55.20;;;;;21.80;99557.00;;;;2075129;28;20237;-77
2022/11/09 01:11:24;;;;;;;69.90;54.90;;;;;21.70;99556.00;;;;2075069;28;20678;-80
2022/11/09 01:12:25;;;;;;;61.93;50.67;;;;;21.70;99567.00;;;;2075544;28;20222;-80
2022/11/09 01:13:25;;;;;;;63.97;52.83;;;;;21.70;99554.00;;;;2075657;28;20233;-80
2022/11/09 01:14:25;;;;;;;67.07;53.90;;;;;21.70;99536.00;;;;2075969;28;20226;-81
2022/11/09 01:15:25;;;;;;;70.90;52.90;;;;;21.70;99562.00;;;;2067052;28;20218;-81
2022/11/09 01:16:26;;;;;;;67.73;53.33;;;;;21.60;99565.00;;;;2066322;28;20222;-81
2022/11/09 01:17:26;;;;;;;63.57;52.30;;;;;21.70;99569.00;;;;2075515;28;20226;-81
2022/11/09 01:18:26;;;;;;;60.87;50.10;;;;;21.60;99570.00;;;;2076420;28;20225;-81
2022/11/09 01:19:27;;;;;;;62.67;50.00;;;;;21.60;99560.00;;;;2076418;28;20226;-81
2022/11/09 01:20:27;;;;;;;59.00;47.90;;;;;21.50;99552.00;;;;2076330;28;20234;-81
2022/11/09 01:21:27;;;;;;;56.57;47.80;;;;;21.60;99562.00;;;;2077337;28;20249;-81
2022/11/09 01:22:28;;;;;;;57.23;48.10;;;;;21.60;99542.00;;;;2077283;28;20215;-81
2022/11/09 01:23:28;;;;;;;55.80;46.73;;;;;21.60;99561.00;;;;2075792;28;20286;-81
2022/11/09 01:24:28;;;;;;;52.37;43.60;;;;;21.60;99571.00;;;;2076803;28;20218;-81
2022/11/09 01:25:29;;;;;;;55.20;46.00;;;;;21.60;99568.00;;;;2067614;28;20726;-81
2022/11/09 01:26:29;;;;;;;52.17;44.03;;;;;21.60;99568.00;;;;2067744;28;20717;-82
2022/11/09 01:27:30;;;;;;;54.90;44.90;;;;;21.60;99562.00;;;;2076358;28;20966;-82
2022/11/09 01:28:31;;;;;;;51.10;44.50;;;;;21.60;99564.00;;;;2076371;28;20295;-81
2022/11/09 01:29:31;;;;;;;48.27;42.37;;;;;21.60;99567.00;;;;2077064;28;20218;-81
2022/11/09 01:30:39;;;;;;;47.90;42.33;;;;;21.60;99572.00;;;;2077283;28;20214;-81
2022/11/09 01:31:40;;;;;;;47.75;41.33;;;;;21.60;99572.00;;;;2077196;28;20267;-81
2022/11/09 01:32:40;;;;;;;51.03;41.50;;;;;21.60;99569.00;;;;2076311;28;20256;-81
2022/11/09 01:33:40;;;;;;;47.43;39.43;;;;;21.60;99568.00;;;;2076305;28;20214;-81
2022/11/09 01:34:41;;;;;;;46.47;38.50;;;;;21.60;99575.00;;;;2076488;28;20217;-81
2022/11/09 01:35:41;;;;;;;49.20;39.90;;;;;21.60;99570.00;;;;2074380;28;20759;-81
2022/11/09 01:36:42;;;;;;;46.27;38.20;;;;;21.60;99574.00;;;;2076773;28;20214;-81
2022/11/09 01:37:42;;;;;;;48.87;39.10;;;;;21.50;99574.00;;;;2078998;28;20210;-81
2022/11/09 01:38:42;;;;;;;47.20;38.03;;;;;21.60;99582.00;;;;2075958;28;20291;-81
2022/11/09 01:39:43;;;;;;;44.60;36.70;;;;;21.60;99574.00;;;;2076030;28;20218;-81
2022/11/09 01:40:43;;;;;;;44.80;37.27;;;;;21.60;99583.00;;;;2076301;28;20770;-81
2022/11/09 01:41:44;;;;;;;45.83;37.90;;;;;21.60;99579.00;;;;2076279;28;20690;-81
2022/11/09 01:42:44;;;;;;;43.37;36.17;;;;;21.50;99583.00;;;;2076938;28;20612;-81
2022/11/09 01:44:18;;;;;;;41.37;36.40;;;;;21.60;99581.00;;;;2077090;28;20241;-82
2022/11/09 01:45:21;;;;;;;41.97;35.17;;;;;21.50;99575.00;;;;2057915;28;20622;-81
2022/11/09 01:46:23;;;;;;;39.03;34.30;;;;;21.50;99585.00;;;;2070802;28;20229;-81
2022/11/09 01:47:23;;;;;;;38.28;32.95;;;;;21.50;99579.00;;;;2068001;28;20229;-81
2022/11/09 01:49:54;;;;;;;42.65;33.45;;;;;21.50;99587.00;;;;2072895;28;20287;-75
2022/11/09 01:50:57;;;;;;;39.75;32.85;;;;;21.50;99587.00;;;;2077963;28;20232;-75
2022/11/09 01:52:10;;;;;;;37.72;32.05;;;;;21.50;99594.00;;;;2070982;28;20326;-75
2022/11/09 01:53:17;;;;;;;38.00;32.33;;;;;21.50;99582.00;;;;2071386;28;20218;-75
2022/11/09 01:54:21;;;;;;;39.30;31.90;;;;;21.50;99593.00;;;;2072746;28;20214;-75
2022/11/09 01:55:22;;;;;;;36.60;32.60;;;;;21.50;99590.00;;;;2079536;28;20205;-75
2022/11/09 01:56:22;;;;;;;36.90;30.63;;;;;21.50;99588.00;;;;2075875;28;20325;-75
2022/11/09 01:57:28;;;;;;;34.33;29.80;;;;;21.50;99580.00;;;;2075502;28;20221;-75
2022/11/09 01:58:35;;;;;;;35.08;29.73;;;;;21.50;99588.00;;;;2072490;28;20264;-75
2022/11/09 01:59:41;;;;;;;34.42;29.33;;;;;21.50;99589.00;;;;2063156;28;20577;-75
2022/11/09 02:00:43;;;;;;;32.25;26.92;;;;;21.50;99583.00;;;;2060724;28;20253;-75
2022/11/09 02:01:43;;;;;;;29.13;26.02;;;;;21.50;99587.00;;;;2063891;28;20222;-75
2022/11/09 02:02:54;;;;;;;31.73;27.70;;;;;21.50;99581.00;;;;2063217;28;20203;-75
2022/11/09 02:03:58;;;;;;;32.80;27.10;;;;;21.50;99574.00;;;;2054448;28;20310;-75
2022/11/09 02:05:01;;;;;;;32.25;26.50;;;;;21.50;99584.00;;;;2044472;28;20232;-75
2022/11/09 02:06:03;;;;;;;32.05;27.13;;;;;21.50;99580.00;;;;2052244;28;20215;-75
2022/11/09 02:07:04;;;;;;;32.85;25.90;;;;;21.50;99569.00;;;;2058812;28;20207;-75
2022/11/09 02:08:04;;;;;;;28.43;25.07;;;;;21.40;99574.00;;;;2058097;28;20215;-75
2022/11/09 02:09:10;;;;;;;33.00;26.63;;;;;21.40;99570.00;;;;2071066;28;20473;-75
2022/11/09 02:10:17;;;;;;;29.33;24.08;;;;;21.40;99569.00;;;;2075122;28;20737;-75
2022/11/09 02:11:19;;;;;;;27.88;23.35;;;;;21.50;99574.00;;;;2071670;28;20312;-75
2022/11/09 02:12:19;;;;;;;28.58;22.85;;;;;21.50;99560.00;;;;2063230;28;20203;-75
2022/11/09 02:13:20;;;;;;;24.60;22.00;;;;;21.50;99561.00;;;;2069040;28;20206;-75
2022/11/09 02:14:21;;;;;;;26.67;22.55;;;;;21.40;99565.00;;;;2071530;28;20259;-75
2022/11/09 02:15:21;;;;;;;28.77;22.10;;;;;21.40;99569.00;;;;2063342;28;20217;-75
2022/11/09 02:16:22;;;;;;;23.30;20.80;;;;;21.40;99569.00;;;;2058965;28;20462;-74
2022/11/09 02:17:22;;;;;;;25.67;21.63;;;;;21.40;99555.00;;;;2051354;28;20222;-75
2022/11/09 02:18:22;;;;;;;22.27;19.97;;;;;21.40;99565.00;;;;2050942;28;20722;-75
2022/11/09 02:19:23;;;;;;;23.37;20.73;;;;;21.40;99566.00;;;;2066932;28;20710;-75
2022/11/09 02:20:23;;;;;;;21.30;19.03;;;;;21.50;99574.00;;;;2067710;28;20709;-75
2022/11/09 02:21:25;;;;;;;24.33;20.30;;;;;21.50;99563.00;;;;2067665;28;20214;-75
2022/11/09 02:22:25;;;;;;;24.73;20.45;;;;;21.50;99564.00;;;;2069597;28;20713;-74
2022/11/09 02:23:26;;;;;;;23.27;19.37;;;;;21.50;99569.00;;;;2063252;28;20257;-75
2022/11/09 02:24:26;;;;;;;22.30;19.57;;;;;21.50;99567.00;;;;2062237;28;20221;-75
2022/11/09 02:25:26;;;;;;;22.30;19.37;;;;;21.40;99574.00;;;;2058917;28;20219;-75
2022/11/09 02:26:49;;;;;;;19.97;17.70;;;;;21.50;99565.00;;;;2066236;28;20243;-75
2022/11/09 02:27:49;;;;;;;20.48;17.88;;;;;21.50;99578.00;;;;2068194;28;20222;-75
2022/11/09 02:28:54;;;;;;;20.77;18.50;;;;;21.40;99566.00;;;;2064616;28;20234;-74
2022/11/09 02:29:54;;;;;;;21.67;18.13;;;;;21.40;99574.00;;;;2063406;28;20207;-75
2022/11/09 02:30:54;;;;;;;18.87;16.87;;;;;21.40;99572.00;;;;2054956;28;20235;-75
2022/11/09 02:31:57;;;;;;;20.27;17.80;;;;;21.40;99578.00;;;;2051050;28;20239;-74
2022/11/09 02:32:57;;;;;;;19.52;16.70;;;;;21.40;99565.00;;;;2062989;28;20559;-75
2022/11/09 02:34:12;;;;;;;18.63;16.37;;;;;21.40;99581.00;;;;2069575;28;20288;-75
2022/11/09 02:35:12;;;;;;;20.23;16.75;;;;;21.40;99573.00;;;;2066715;28;20226;-75
2022/11/09 02:36:12;;;;;;;19.30;15.47;;;;;21.40;99575.00;;;;2054852;28;20691;-75
2022/11/09 02:37:29;;;;;;;18.93;16.60;;;;;21.40;99575.00;;;;2058084;28;20710;-75
2022/11/09 02:38:29;;;;;;;20.77;16.33;;;;;21.40;99584.00;;;;2071048;28;20210;-75
2022/11/09 02:39:29;;;;;;;18.77;15.50;;;;;21.40;99580.00;;;;2069941;28;20230;-75
2022/11/09 02:40:31;;;;;;;18.23;15.97;;;;;21.40;99581.00;;;;2066974;28;20234;-75
2022/11/09 02:41:32;;;;;;;16.63;14.75;;;;;21.40;99572.00;;;;2067305;28;20210;-75
2022/11/09 02:42:32;;;;;;;16.53;14.07;;;;;21.40;99579.00;;;;2067572;28;20258;-75
2022/11/09 02:43:34;;;;;;;18.53;15.07;;;;;21.40;99572.00;;;;2059600;28;20231;-75
2022/11/09 02:44:37;;;;;;;17.02;15.23;;;;;21.40;99583.00;;;;2059257;28;20721;-75
2022/11/09 02:45:37;;;;;;;17.15;15.27;;;;;21.40;99575.00;;;;2063404;28;20289;-75
2022/11/09 02:46:37;;;;;;;16.50;14.70;;;;;21.40;99570.00;;;;2071365;28;20575;-75
2022/11/09 02:47:38;;;;;;;15.90;13.83;;;;;21.40;99576.00;;;;2068151;28;20272;-75
2022/11/09 02:48:38;;;;;;;16.90;13.97;;;;;21.40;99577.00;;;;2068235;28;20616;-75
2022/11/09 02:49:38;;;;;;;15.80;13.57;;;;;21.40;99562.00;;;;2067337;28;20576;-75
2022/11/09 02:50:39;;;;;;;16.10;13.03;;;;;21.40;99567.00;;;;2067613;28;20678;-75
2022/11/09 02:51:39;;;;;;;15.13;13.20;;;;;21.40;99564.00;;;;2067479;28;20772;-74
2022/11/09 02:52:39;;;;;;;15.90;13.90;;;;;21.40;99568.00;;;;2066173;28;20211;-75
2022/11/09 02:53:39;;;;;;;15.10;13.50;;;;;21.40;99565.00;;;;2067788;28;20272;-74
2022/11/09 02:54:40;;;;;;;15.63;12.90;;;;;21.40;99568.00;;;;2068191;28;20215;-75
2022/11/09 02:55:40;;;;;;;14.60;13.03;;;;;21.40;99566.00;;;;2069859;28;20310;-75
2022/11/09 02:56:40;;;;;;;15.30;13.47;;;;;21.40;99553.00;;;;2067090;28;20213;-75
2022/11/09 02:57:41;;;;;;;16.00;13.03;;;;;21.40;99561.00;;;;2067693;28;20234;-75
2022/11/09 02:58:41;;;;;;;13.87;11.97;;;;;21.40;99518.00;;;;2068254;28;20242;-75
2022/11/09 02:59:41;;;;;;;14.00;12.40;;;;;21.40;99568.00;;;;2068247;28;20214;-75
2022/11/09 03:00:42;;;;;;;16.93;12.50;;;;;21.40;99571.00;;;;2068200;28;20628;-75
2022/11/09 03:01:42;;;;;;;14.97;12.53;;;;;21.40;99557.00;;;;2067760;28;20584;-75
2022/11/09 03:02:42;;;;;;;12.70;11.20;;;;;21.40;99573.00;;;;2067154;28;20702;-75
2022/11/09 03:03:43;;;;;;;12.73;11.43;;;;;21.40;99548.00;;;;2067406;28;20964;-75
2022/11/09 03:04:43;;;;;;;12.90;11.33;;;;;21.40;99563.00;;;;2067379;28;20749;-75
2022/11/09 03:05:43;;;;;;;13.73;11.20;;;;;21.40;99573.00;;;;2066952;28;20718;-75
2022/11/09 03:06:44;;;;;;;12.07;10.77;;;;;21.40;99569.00;;;;2067149;28;20218;-75
2022/11/09 03:07:44;;;;;;;12.43;10.50;;;;;21.40;99554.00;;;;2067955;28;20688;-75
2022/11/09 03:08:44;;;;;;;13.43;10.10;;;;;21.40;99567.00;;;;2068018;28;20695;-75
2022/11/09 03:09:45;;;;;;;11.40;10.20;;;;;21.40;99563.00;;;;2068038;28;20233;-74
2022/11/09 03:10:45;;;;;;;11.40;9.93;;;;;21.40;99568.00;;;;2067557;28;20210;-75
2022/11/09 03:11:46;;;;;;;12.60;10.87;;;;;21.40;99573.00;;;;2066836;28;20279;-75
2022/11/09 03:12:46;;;;;;;12.70;10.10;;;;;21.40;99569.00;;;;2067028;28;20228;-75
2022/11/09 03:13:46;;;;;;;13.80;10.97;;;;;21.30;99568.00;;;;2067299;28;20215;-75
2022/11/09 03:14:46;;;;;;;10.30;8.93;;;;;21.40;99573.00;;;;2067309;28;20238;-75
2022/11/09 03:15:47;;;;;;;11.17;9.80;;;;;21.40;99571.00;;;;2067265;28;20214;-75
2022/11/09 03:16:47;;;;;;;11.23;9.83;;;;;21.40;99575.00;;;;2067320;28;20210;-73
2022/11/09 03:17:47;;;;;;;12.40;9.93;;;;;21.40;99581.00;;;;2067230;28;20250;-75
2022/11/09 03:18:48;;;;;;;10.60;9.53;;;;;21.40;99580.00;;;;2067088;28;20221;-75
2022/11/09 03:19:48;;;;;;;10.90;9.03;;;;;21.30;99583.00;;;;2068010;28;20214;-75
2022/11/09 03:20:48;;;;;;;10.23;9.23;;;;;21.30;99581.00;;;;2067933;28;20249;-75
2022/11/09 03:21:49;;;;;;;10.10;9.07;;;;;21.30;99589.00;;;;2067734;28;20207;-75
2022/11/09 03:22:49;;;;;;;10.00;8.10;;;;;21.30;99599.00;;;;2068027;28;20209;-75
2022/11/09 03:23:49;;;;;;;9.90;8.90;;;;;21.40;99588.00;;;;2067280;28;20210;-75
2022/11/09 03:24:50;;;;;;;11.50;9.20;;;;;21.30;99592.00;;;;2067217;28;20217;-75
2022/11/09 03:25:50;;;;;;;9.00;8.10;;;;;21.30;99596.00;;;;2067241;28;20218;-75
2022/11/09 03:26:50;;;;;;;10.27;8.70;;;;;21.30;99592.00;;;;2067103;28;20206;-75
2022/11/09 03:27:58;;;;;;;9.93;8.60;;;;;21.30;99594.00;;;;2067244;28;20227;-75
2022/11/09 03:28:59;;;;;;;10.93;8.90;;;;;21.30;99584.00;;;;2067524;28;20288;-75
2022/11/09 03:29:59;;;;;;;9.23;8.20;;;;;21.30;99592.00;;;;2067953;28;20711;-75
2022/11/09 03:30:59;;;;;;;8.77;7.80;;;;;21.30;99584.00;;;;2067523;28;20550;-75
2022/11/09 03:32:00;;;;;;;9.70;8.70;;;;;21.30;99588.00;;;;2066933;28;20217;-75
2022/11/09 03:33:06;;;;;;;10.90;7.43;;;;;21.30;99592.00;;;;2067188;28;20229;-75
2022/11/09 03:34:06;;;;;;;9.48;7.43;;;;;21.30;99589.00;;;;2067128;28;20213;-75
2022/11/09 03:35:07;;;;;;;8.67;7.77;;;;;21.30;99592.00;;;;2067730;28;20254;-75
2022/11/09 03:36:07;;;;;;;8.37;6.77;;;;;21.30;99591.00;;;;2067755;28;20219;-75
2022/11/09 03:37:08;;;;;;;10.87;8.20;;;;;21.30;99594.00;;;;2067921;28;20614;-75
2022/11/09 03:38:08;;;;;;;10.40;7.57;;;;;21.30;99594.00;;;;2067805;28;20233;-75
2022/11/09 03:39:08;;;;;;;8.40;7.60;;;;;21.30;99597.00;;;;2067152;28;20715;-75
2022/11/09 03:40:09;;;;;;;8.70;7.53;;;;;21.30;99592.00;;;;2066403;28;20581;-75
2022/11/09 03:41:10;;;;;;;8.68;7.13;;;;;21.30;99592.00;;;;2066928;28;20333;-75
2022/11/09 03:42:10;;;;;;;7.00;6.30;;;;;21.30;99596.00;;;;2069317;28;20218;-74
2022/11/09 03:43:10;;;;;;;7.40;6.70;;;;;21.30;99591.00;;;;2070801;28;20320;-75
2022/11/09 03:44:11;;;;;;;7.30;5.80;;;;;21.30;99590.00;;;;2067826;28;20564;-75
2022/11/09 03:45:12;;;;;;;7.13;6.43;;;;;21.30;99597.00;;;;2067529;28;20733;-75
2022/11/09 03:46:12;;;;;;;7.88;6.68;;;;;21.30;99597.00;;;;2067793;28;20670;-75
2022/11/09 03:47:12;;;;;;;7.57;6.20;;;;;21.30;99597.00;;;;2067474;28;20242;-75
2022/11/09 03:48:13;;;;;;;8.73;7.00;;;;;21.30;99600.00;;;;2066894;28;20217;-75
2022/11/09 03:49:13;;;;;;;7.63;6.40;;;;;21.30;99603.00;;;;2066697;28;20225;-75
2022/11/09 03:50:14;;;;;;;7.23;6.10;;;;;21.30;99598.00;;;;2067031;28;20238;-75
2022/11/09 03:51:14;;;;;;;7.90;6.28;;;;;21.30;99606.00;;;;2067090;28;20226;-74
2022/11/09 03:52:15;;;;;;;7.20;6.20;;;;;21.30;99606.00;;;;2066769;28;20215;-75
2022/11/09 03:53:15;;;;;;;8.63;5.60;;;;;21.30;99612.00;;;;2067826;28;20238;-75
2022/11/09 03:54:15;;;;;;;8.20;6.00;;;;;21.30;99608.00;;;;2067752;28;20225;-74
2022/11/09 03:55:16;;;;;;;7.40;5.50;;;;;21.30;99611.00;;;;2071224;28;20814;-75
2022/11/09 03:56:16;;;;;;;7.00;5.47;;;;;21.30;99610.00;;;;2067616;28;20218;-75
2022/11/09 03:57:17;;;;;;;8.10;5.40;;;;;21.30;99608.00;;;;2067934;28;20250;-75
2022/11/09 03:58:17;;;;;;;5.77;5.17;;;;;21.30;99619.00;;;;2067741;28;20284;-75
2022/11/09 03:59:18;;;;;;;5.90;5.00;;;;;21.30;99614.00;;;;2067791;28;20633;-75
2022/11/09 04:00:19;;;;;;;7.33;5.30;;;;;21.30;99614.00;;;;2066831;28;20636;-75
2022/11/09 04:01:19;;;;;;;6.93;5.50;;;;;21.30;99621.00;;;;2066748;28;20214;-75
2022/11/09 04:02:19;;;;;;;6.70;5.77;;;;;21.30;99623.00;;;;2066670;28;20214;-75
2022/11/09 04:03:20;;;;;;;6.03;5.40;;;;;21.30;99617.00;;;;2066971;28;20226;-74
2022/11/09 04:04:20;;;;;;;7.70;5.30;;;;;21.30;99624.00;;;;2070376;28;20218;-75
2022/11/09 04:05:20;;;;;;;5.87;5.27;;;;;21.30;99599.00;;;;2070698;28;20226;-75
2022/11/09 04:06:21;;;;;;;6.30;4.90;;;;;21.30;99618.00;;;;2066966;28;20238;-74
2022/11/09 04:07:21;;;;;;;5.33;4.80;;;;;21.30;99619.00;;;;2066927;28;20249;-74
2022/11/09 04:08:21;;;;;;;5.80;4.83;;;;;21.30;99615.00;;;;2067159;28;20213;-74
2022/11/09 04:09:22;;;;;;;5.43;4.60;;;;;21.30;99619.00;;;;2066796;28;20253;-75
2022/11/09 04:10:23;;;;;;;6.63;4.50;;;;;21.20;99609.00;;;;2066985;28;20222;-75
2022/11/09 04:11:23;;;;;;;5.20;4.70;;;;;21.30;99611.00;;;;2066522;28;20214;-75
2022/11/09 04:12:23;;;;;;;5.83;4.60;;;;;21.30;99615.00;;;;2066508;28;20461;-75
2022/11/09 04:13:24;;;;;;;5.60;5.00;;;;;21.30;99612.00;;;;2067609;28;20574;-75
2022/11/09 04:14:24;;;;;;;6.60;4.40;;;;;21.30;99617.00;;;;2067471;28;20579;-75
2022/11/09 04:15:24;;;;;;;5.30;4.13;;;;;21.30;99614.00;;;;2067681;28;20218;-75
2022/11/09 04:16:25;;;;;;;5.10;4.60;;;;;21.30;99611.00;;;;2067651;28;20225;-75
2022/11/09 04:17:25;;;;;;;6.03;5.20;;;;;21.30;99613.00;;;;2066978;28;20210;-75
2022/11/09 04:18:25;;;;;;;5.17;4.60;;;;;21.30;99612.00;;;;2066538;28;20638;-74
2022/11/09 04:19:26;;;;;;;6.57;4.43;;;;;21.30;99611.00;;;;2066751;28;20566;-74
2022/11/09 04:20:27;;;;;;;5.57;4.30;;;;;21.30;99610.00;;;;2066790;28;20749;-74
2022/11/09 04:21:28;;;;;;;6.25;4.72;;;;;21.30;99605.00;;;;2058217;28;20215;-75
2022/11/09 04:22:28;;;;;;;4.63;4.13;;;;;21.30;99610.00;;;;2074802;28;20218;-74
2022/11/09 04:23:28;;;;;;;5.67;4.17;;;;;21.20;99609.00;;;;2074468;28;20681;-74
2022/11/09 04:24:29;;;;;;;5.20;4.30;;;;;21.20;99597.00;;;;2067622;28;20300;-75
2022/11/09 04:25:34;;;;;;;4.47;3.70;;;;;21.20;99592.00;;;;2067193;28;20222;-74
2022/11/09 04:26:34;;;;;;;5.50;3.80;;;;;21.30;99602.00;;;;2068098;28;20639;-74
2022/11/09 04:27:35;;;;;;;5.30;4.50;;;;;21.30;99604.00;;;;2069792;28;20250;-74
2022/11/09 04:28:35;;;;;;;5.00;4.20;;;;;21.20;99605.00;;;;2066141;28;20222;-75
2022/11/09 04:29:35;;;;;;;3.70;3.20;;;;;21.20;99603.00;;;;2067428;28;20226;-74
2022/11/09 04:30:36;;;;;;;4.37;3.90;;;;;21.20;99594.00;;;;2067675;28;20219;-74
2022/11/09 04:31:36;;;;;;;6.27;4.40;;;;;21.20;99604.00;;;;2067572;28;20215;-75
2022/11/09 04:32:36;;;;;;;4.00;3.57;;;;;21.30;99598.00;;;;2067399;28;20217;-75
2022/11/09 04:33:37;;;;;;;5.07;3.67;;;;;21.20;99611.00;;;;2066701;28;20264;-74
2022/11/09 04:34:37;;;;;;;4.50;3.30;;;;;21.20;99577.00;;;;2066590;28;20210;-74
2022/11/09 04:35:37;;;;;;;5.43;4.00;;;;;21.20;99607.00;;;;2066892;28;20222;-74
2022/11/09 04:36:38;;;;;;;5.70;4.03;;;;;21.30;99612.00;;;;2069223;28;20721;-75
2022/11/09 04:37:38;;;;;;;5.03;4.20;;;;;21.20;99610.00;;;;2070428;28;20218;-75
2022/11/09 04:38:38;;;;;;;5.10;4.00;;;;;21.30;99627.00;;;;2067395;28;20248;-75
2022/11/09 04:39:39;;;;;;;3.63;2.90;;;;;21.20;99621.00;;;;2067469;28;20218;-74
2022/11/09 04:40:39;;;;;;;5.47;3.47;;;;;21.20;99628.00;;;;2067500;28;20277;-74
2022/11/09 04:41:39;;;;;;;4.77;3.40;;;;;21.20;99625.00;;;;2067359;28;20596;-74
2022/11/09 04:42:40;;;;;;;5.23;3.50;;;;;21.20;99621.00;;;;2066758;28;20298;-74
2022/11/09 04:43:40;;;;;;;5.57;3.77;;;;;21.20;99627.00;;;;2066628;28;20315;-75
2022/11/09 04:44:41;;;;;;;4.90;3.73;;;;;21.20;99624.00;;;;2066643;28;20223;-75
2022/11/09 04:45:41;;;;;;;3.43;2.90;;;;;21.20;99630.00;;;;2066561;28;20691;-75
2022/11/09 04:46:41;;;;;;;4.03;3.60;;;;;21.20;99630.00;;;;2067556;28;20254;-74
2022/11/09 04:47:42;;;;;;;3.83;3.30;;;;;21.20;99632.00;;;;2067622;28;20584;-75
2022/11/09 04:48:43;;;;;;;5.20;3.10;;;;;21.20;99642.00;;;;2067381;28;20247;-74
2022/11/09 04:49:43;;;;;;;4.85;3.13;;;;;21.20;99638.00;;;;2067349;28;20230;-74
2022/11/09 04:50:43;;;;;;;4.27;3.13;;;;;21.20;99636.00;;;;2066780;28;20210;-75
2022/11/09 04:51:44;;;;;;;3.70;3.13;;;;;21.20;99640.00;;;;2066590;28;20627;-75
2022/11/09 04:52:44;;;;;;;3.73;2.90;;;;;21.20;99638.00;;;;2067105;28;20572;-75
2022/11/09 04:53:44;;;;;;;3.73;3.10;;;;;21.20;99635.00;;;;2068280;28;20721;-74
2022/11/09 04:54:45;;;;;;;4.60;2.93;;;;;21.20;99632.00;;;;2068609;28;20242;-75
2022/11/09 04:55:45;;;;;;;3.80;3.00;;;;;21.20;99636.00;;;;2073933;28;20221;-75
2022/11/09 04:56:45;;;;;;;2.93;2.60;;;;;21.20;99655.00;;;;2068430;28;20242;-75
2022/11/09 04:57:46;;;;;;;4.47;3.03;;;;;21.20;99647.00;;;;2071188;28;20634;-75
2022/11/09 04:58:46;;;;;;;5.37;2.97;;;;;21.20;99647.00;;;;2068830;28;20685;-75
2022/11/09 04:59:46;;;;;;;3.80;2.97;;;;;21.20;99647.00;;;;2068249;28;20751;-75
2022/11/09 05:00:47;;;;;;;3.47;2.80;;;;;21.20;99643.00;;;;2068194;28;20218;-74
2022/11/09 05:01:47;;;;;;;3.60;2.90;;;;;21.20;99649.00;;;;2067919;28;20245;-75